Time;durP1;ratioP1;P1;durP2;ratioP2;P2;SDS_P1;SDS_P2;PMS_P1;PMS_P2;Temp;Humidity;BMP_temperature;BMP_pressure;BME280_temperature;BME280_humidity;BME280_pressure;Samples;Min_cycle;Max_cycle;Signal;HPM_P1;HPM_P2
2021/06/29 00:00:12;;;;;;;4.95;4.43;;;19.10;90.40;;;;;;5051642;28;20037;-90
2021/06/29 00:02:38;;;;;;;5.47;4.97;;;19.10;90.60;;;;;;5052792;28;20493;-90
2021/06/29 00:05:04;;;;;;;4.93;4.43;;;19.10;90.60;;;;;;5051551;28;20047;-90
2021/06/29 00:07:30;;;;;;;5.82;4.80;;;19.10;90.80;;;;;;5051465;28;20044;-90
2021/06/29 00:09:56;;;;;;;5.70;5.20;;;19.10;90.90;;;;;;5051524;28;20033;-90
2021/06/29 00:12:21;;;;;;;5.55;5.05;;;19.10;90.90;;;;;;5052877;28;20041;-90
2021/06/29 00:14:47;;;;;;;7.63;4.93;;;19.00;91.00;;;;;;5051430;28;20397;-90
2021/06/29 00:17:13;;;;;;;5.28;4.70;;;19.00;91.20;;;;;;5051536;28;20083;-90
2021/06/29 00:19:38;;;;;;;4.97;4.35;;;19.00;91.30;;;;;;5053835;28;20040;-90
2021/06/29 00:22:06;;;;;;;5.45;4.80;;;19.00;91.40;;;;;;5055042;28;20444;-90
2021/06/29 00:24:32;;;;;;;5.15;4.68;;;19.00;91.50;;;;;;5054925;28;20390;-90
2021/06/29 00:26:57;;;;;;;6.15;4.78;;;18.90;91.60;;;;;;5056315;28;20041;-90
2021/06/29 00:29:23;;;;;;;4.95;4.47;;;18.90;91.70;;;;;;5054837;28;20041;-90
2021/06/29 00:31:49;;;;;;;5.25;4.75;;;18.90;91.80;;;;;;5054797;28;20033;-90
2021/06/29 00:34:14;;;;;;;4.90;4.50;;;18.90;92.00;;;;;;5054837;28;20033;-90
2021/06/29 00:36:40;;;;;;;4.97;4.30;;;18.80;92.10;;;;;;5054676;28;20080;-90
2021/06/29 00:39:06;;;;;;;4.88;4.20;;;18.80;92.30;;;;;;5054743;28;20478;-90
2021/06/29 00:41:31;;;;;;;8.02;4.70;;;18.80;92.40;;;;;;5054618;28;20474;-90
2021/06/29 00:43:57;;;;;;;5.03;4.47;;;18.80;92.50;;;;;;5054613;28;20029;-90
2021/06/29 00:46:23;;;;;;;7.25;4.30;;;18.80;92.50;;;;;;5054500;28;20448;-90
2021/06/29 00:48:49;;;;;;;4.50;4.10;;;18.70;92.70;;;;;;5055601;28;20162;-90
2021/06/29 00:51:17;;;;;;;4.65;4.15;;;18.70;92.60;;;;;;5054387;28;20039;-90
2021/06/29 00:53:44;;;;;;;4.75;4.00;;;18.70;92.70;;;;;;5054417;28;20544;-90
2021/06/29 00:56:19;;;;;;;4.10;3.80;;;18.80;92.80;;;;;;5055494;28;20029;-90
2021/06/29 00:58:46;;;;;;;4.50;4.10;;;18.80;92.80;;;;;;5054392;28;20033;-90
2021/06/29 01:01:13;;;;;;;4.43;4.03;;;18.80;92.80;;;;;;5054183;28;20437;-90
2021/06/29 01:06:13;;;;;;;3.97;3.67;;;18.80;92.70;;;;;;5054342;28;20524;-90
2021/06/29 01:08:43;;;;;;;4.40;4.00;;;18.80;92.60;;;;;;5054472;28;20060;-90
2021/06/29 01:11:15;;;;;;;5.97;3.90;;;18.80;92.60;;;;;;5038053;28;20426;-90
2021/06/29 01:13:52;;;;;;;6.10;4.28;;;18.80;92.60;;;;;;5037980;28;20478;-90
2021/06/29 01:16:39;;;;;;;4.43;4.00;;;18.80;92.40;;;;;;5038272;28;20036;-90
2021/06/29 01:19:10;;;;;;;4.30;3.90;;;18.80;92.40;;;;;;5037474;28;20045;-90
2021/06/29 01:21:42;;;;;;;4.78;4.30;;;18.70;92.50;;;;;;5038216;28;20375;-90
2021/06/29 01:24:13;;;;;;;5.57;4.35;;;18.70;92.70;;;;;;5055362;28;20039;-90
2021/06/29 01:32:29;;;;;;;4.53;4.13;;;18.60;93.00;;;;;;5055602;28;20033;-90
2021/06/29 01:35:36;;;;;;;5.97;3.80;;;18.60;93.00;;;;;;5053738;28;20440;-90
2021/06/29 01:38:37;;;;;;;4.25;3.85;;;18.60;93.00;;;;;;5044052;28;20441;-90
2021/06/29 01:41:21;;;;;;;4.25;3.83;;;18.60;92.90;;;;;;5018317;28;20046;-89
2021/06/29 01:46:48;;;;;;;4.43;4.03;;;18.60;93.00;;;;;;5014009;28;20056;-90
2021/06/29 01:49:49;;;;;;;4.93;3.75;;;18.60;93.00;;;;;;5022635;28;20049;-90
2021/06/29 01:52:23;;;;;;;3.90;3.60;;;18.60;93.00;;;;;;5022994;28;20036;-90
2021/06/29 01:55:08;;;;;;;;;;;;;;;;;;;;;
2021/06/29 01:57:49;;;;;;;4.30;3.90;;;18.60;93.20;;;;;;5055310;28;19915;-90
2021/06/29 02:00:25;;;;;;;4.63;4.22;;;18.60;92.90;;;;;;5053939;28;20068;-90
2021/06/29 02:02:54;;;;;;;6.93;3.83;;;18.60;92.90;;;;;;5055274;28;20060;-90
2021/06/29 02:05:25;;;;;;;4.70;4.30;;;18.60;93.00;;;;;;5053913;28;20577;-90
2021/06/29 02:07:57;;;;;;;5.68;3.97;;;18.60;93.10;;;;;;5052286;28;20118;-90
2021/06/29 02:10:48;;;;;;;5.63;3.97;;;18.60;93.20;;;;;;5053548;28;20040;-90
2021/06/29 02:13:26;;;;;;;4.70;4.20;;;18.60;93.20;;;;;;5055072;28;20036;-90
2021/06/29 02:15:55;;;;;;;4.68;4.28;;;18.60;93.50;;;;;;5053383;28;20044;-90
2021/06/29 02:18:40;;;;;;;4.93;4.40;;;18.60;93.60;;;;;;5053258;28;20047;-90
2021/06/29 02:21:15;;;;;;;4.95;4.45;;;18.60;93.70;;;;;;5053310;28;20167;-90
2021/06/29 02:23:47;;;;;;;5.03;4.53;;;18.60;93.60;;;;;;5069912;28;20048;-90
2021/06/29 02:26:18;;;;;;;5.00;4.50;;;18.70;93.50;;;;;;5053459;28;20060;-91
2021/06/29 02:29:04;;;;;;;4.72;4.30;;;18.70;93.50;;;;;;5053949;28;20056;-90
2021/06/29 02:31:42;;;;;;;5.50;4.90;;;18.70;93.50;;;;;;5032388;28;20042;-90
2021/06/29 02:34:10;;;;;;;5.35;4.85;;;18.80;93.50;;;;;;5015737;28;20086;-90
2021/06/29 02:36:45;;;;;;;4.85;4.45;;;18.80;93.50;;;;;;5015854;28;20033;-90
2021/06/29 02:39:13;;;;;;;;;;;18.80;93.30;;;;;;5032565;28;20510;-90
2021/06/29 02:41:57;;;;;;;6.03;4.63;;;18.80;93.30;;;;;;5031487;28;20012;-90
2021/06/29 02:44:35;;;;;;;5.70;4.55;;;18.80;93.40;;;;;;5015258;28;20037;-90
2021/06/29 02:47:02;;;;;;;4.82;4.43;;;18.90;93.40;;;;;;5017114;28;20041;-90
2021/06/29 02:49:33;;;;;;;5.13;4.63;;;18.90;93.60;;;;;;5039643;28;20053;-89
2021/06/29 02:52:24;;;;;;;;;;;;;;;;;;;;;
2021/06/29 02:54:55;;;;;;;4.53;4.13;;;19.20;93.10;;;;;;5032439;28;20044;-90
2021/06/29 02:57:33;;;;;;;5.10;4.60;;;19.20;93.00;;;;;;5015301;28;20084;-90
2021/06/29 03:00:07;;;;;;;5.35;4.57;;;19.30;92.60;;;;;;5014984;28;20491;-90
2021/06/29 03:02:57;;;;;;;4.80;4.35;;;19.40;92.60;;;;;;5031388;28;20032;-90
2021/06/29 03:05:26;;;;;;;4.32;3.92;;;19.50;92.40;;;;;;5052192;28;20060;-90
2021/06/29 03:08:00;;;;;;;4.45;4.05;;;19.60;92.20;;;;;;5052681;28;20044;-89
2021/06/29 03:10:41;;;;;;;;;;;19.70;91.90;;;;;;5053890;28;20091;-90
2021/06/29 03:13:20;;;;;;;6.90;4.30;;;19.80;91.80;;;;;;5052431;28;19912;-90
2021/06/29 03:15:55;;;;;;;4.88;4.45;;;19.90;91.50;;;;;;5052415;28;20037;-90
2021/06/29 03:18:24;;;;;;;4.93;4.47;;;20.00;91.30;;;;;;5052211;28;20033;-90
2021/06/29 03:20:59;;;;;;;5.72;4.60;;;20.10;91.10;;;;;;5052385;28;20398;-90
2021/06/29 03:23:29;;;;;;;;;;;20.20;91.00;;;;;;5053136;28;20171;-90
2021/06/29 03:26:16;;;;;;;5.68;4.63;;;20.30;91.30;;;;;;5051343;28;19913;-90
2021/06/29 03:28:42;;;;;;;5.82;5.07;;;20.40;90.80;;;;;;5052592;28;20056;-90
2021/06/29 03:31:24;;;;;;;5.35;4.85;;;20.50;90.60;;;;;;5052816;28;20029;-90
2021/06/29 03:33:55;;;;;;;6.63;5.60;;;20.60;90.70;;;;;;5052137;28;20048;-90
2021/06/29 03:36:27;;;;;;;6.13;5.53;;;20.80;90.60;;;;;;5052020;28;20037;-90
2021/06/29 03:39:06;;;;;;;5.38;4.88;;;20.90;90.40;;;;;;5052259;28;20371;-90
2021/06/29 03:41:47;;;;;;;5.35;4.95;;;21.10;90.50;;;;;;5052339;28;20497;-90
2021/06/29 03:44:18;;;;;;;6.50;5.45;;;21.20;89.70;;;;;;5052839;28;20033;-90
2021/06/29 03:46:47;;;;;;;5.82;4.90;;;21.30;88.60;;;;;;5053610;28;20394;-90
2021/06/29 03:49:34;;;;;;;;;;;;;;;;;;;;;
2021/06/29 03:52:07;;;;;;;5.10;4.65;;;21.50;86.90;;;;;;5054720;28;20103;-91
2021/06/29 03:54:35;;;;;;;4.82;4.43;;;21.60;86.40;;;;;;5055594;28;20051;-90
2021/06/29 03:57:04;;;;;;;4.55;4.15;;;21.70;85.80;;;;;;5056666;28;20091;-91
2021/06/29 03:59:33;;;;;;;4.97;4.30;;;21.90;84.90;;;;;;5056217;28;20478;-90
2021/06/29 04:02:10;;;;;;;4.55;4.03;;;22.00;84.20;;;;;;5057962;28;20041;-92
2021/06/29 04:04:42;;;;;;;5.95;4.20;;;22.30;83.00;;;;;;5060218;28;20025;-90
2021/06/29 04:07:13;;;;;;;5.22;4.22;;;22.40;82.20;;;;;;5056967;28;20128;-90
2021/06/29 04:09:55;;;;;;;4.60;3.97;;;22.60;81.30;;;;;;5052893;28;20264;-90
2021/06/29 04:12:23;;;;;;;6.15;4.47;;;22.80;80.50;;;;;;5054256;28;20086;-90
2021/06/29 04:14:52;;;;;;;6.57;4.50;;;23.00;79.60;;;;;;5056154;28;20124;-90
2021/06/29 04:17:31;;;;;;;5.05;4.15;;;23.10;78.70;;;;;;5058176;28;20120;-90
2021/06/29 04:20:00;;;;;;;4.78;4.05;;;23.30;78.50;;;;;;5057067;28;20033;-90
2021/06/29 04:22:31;;;;;;;5.68;4.70;;;23.40;77.80;;;;;;5055909;28;20041;-90
2021/06/29 04:25:19;;;;;;;5.13;3.90;;;23.50;77.20;;;;;;5055432;28;20029;-90
2021/06/29 04:27:59;;;;;;;5.57;4.28;;;23.70;76.60;;;;;;5055643;28;20049;-90
2021/06/29 04:30:48;;;;;;;4.45;4.05;;;23.80;76.40;;;;;;5055522;28;20047;-90
2021/06/29 04:33:29;;;;;;;4.40;4.00;;;23.90;76.20;;;;;;5072634;28;20044;-90
2021/06/29 04:36:03;;;;;;;5.38;4.15;;;24.00;75.80;;;;;;5056043;28;20033;-90
2021/06/29 04:38:44;;;;;;;5.47;4.10;;;24.20;75.70;;;;;;5055665;28;20088;-90
2021/06/29 04:41:21;;;;;;;4.60;4.20;;;24.50;75.30;;;;;;5055946;28;20441;-90
2021/06/29 04:43:55;;;;;;;4.63;4.10;;;24.70;74.70;;;;;;5054546;28;20029;-91
2021/06/29 04:46:33;;;;;;;4.70;4.30;;;25.00;73.40;;;;;;5054401;28;20037;-90
2021/06/29 04:49:10;;;;;;;4.22;3.90;;;25.20;72.80;;;;;;5054598;28;20045;-91
2021/06/29 04:51:38;;;;;;;5.20;4.05;;;25.40;72.10;;;;;;5055026;28;20041;-92
2021/06/29 04:54:27;;;;;;;4.13;3.72;;;25.60;71.40;;;;;;5054477;28;20033;-90
2021/06/29 04:57:10;;;;;;;3.85;3.55;;;25.80;70.80;;;;;;5046619;28;20041;-90
2021/06/29 05:00:10;;;;;;;4.05;3.75;;;25.90;71.10;;;;;;5055010;28;20036;-89
2021/06/29 05:02:45;;;;;;;3.60;3.30;;;26.10;70.40;;;;;;5054336;28;20033;-90
2021/06/29 05:05:14;;;;;;;4.75;3.88;;;26.20;70.10;;;;;;5055745;28;20052;-88
2021/06/29 05:10:39;;;;;;;4.35;3.10;;;26.50;68.70;;;;;;5072957;28;20098;-87
2021/06/29 05:13:10;;;;;;;3.75;3.10;;;26.60;67.90;;;;;;5077897;28;20043;-88
2021/06/29 05:15:42;;;;;;;5.32;3.45;;;26.70;67.70;;;;;;5079595;28;20036;-88
2021/06/29 05:18:13;;;;;;;3.53;3.22;;;26.70;67.40;;;;;;5080264;28;20032;-88
2021/06/29 05:20:44;;;;;;;6.22;3.60;;;26.70;67.30;;;;;;5080143;28;20047;-88
2021/06/29 05:23:30;;;;;;;6.55;3.45;;;26.60;67.10;;;;;;5079544;28;20044;-89
2021/06/29 05:25:59;;;;;;;4.00;3.70;;;26.60;67.00;;;;;;5079804;28;20039;-87
2021/06/29 05:28:32;;;;;;;3.60;3.30;;;26.40;66.70;;;;;;5078051;28;20049;-88
2021/06/29 05:31:00;;;;;;;3.92;3.58;;;26.20;67.00;;;;;;5078545;28;20032;-88
2021/06/29 05:33:33;;;;;;;3.70;3.40;;;26.10;67.50;;;;;;5078772;28;20494;-88
2021/06/29 05:36:01;;;;;;;5.55;3.65;;;25.90;67.60;;;;;;5097333;28;20035;-87
2021/06/29 05:38:33;;;;;;;5.65;4.00;;;25.80;67.70;;;;;;5079475;28;20039;-88
2021/06/29 05:41:02;;;;;;;5.13;3.40;;;25.70;68.00;;;;;;5079983;28;20118;-88
2021/06/29 05:43:37;;;;;;;4.07;3.78;;;25.80;68.50;;;;;;5079193;28;20036;-88
2021/06/29 05:46:08;;;;;;;4.75;3.50;;;26.10;68.50;;;;;;5082501;28;20123;-88
2021/06/29 05:48:40;;;;;;;3.58;3.28;;;26.50;68.60;;;;;;5080937;28;20381;-88
2021/06/29 05:51:21;;;;;;;3.70;3.20;;;26.90;68.40;;;;;;5082520;28;20039;-87
2021/06/29 05:54:13;;;;;;;4.95;3.40;;;27.40;68.00;;;;;;5056130;28;20044;-89
2021/06/29 05:56:42;;;;;;;4.20;3.80;;;28.00;66.00;;;;;;5075897;28;20120;-89
2021/06/29 05:59:09;;;;;;;3.45;3.25;;;28.70;66.20;;;;;;5038203;28;20033;-88
2021/06/29 06:01:38;;;;;;;5.18;3.38;;;29.40;65.50;;;;;;5038073;28;20037;-89
2021/06/29 06:04:06;;;;;;;3.38;3.08;;;30.10;64.00;;;;;;5038594;28;20501;-89
2021/06/29 06:06:41;;;;;;;3.45;3.15;;;30.60;62.10;;;;;;5053890;28;20080;-91
2021/06/29 06:09:16;;;;;;;3.88;3.15;;;31.00;61.60;;;;;;5053033;28;20045;-91
2021/06/29 06:11:47;;;;;;;3.38;3.10;;;31.50;60.80;;;;;;5055082;28;20111;-91
2021/06/29 06:14:16;;;;;;;3.40;3.20;;;31.70;60.20;;;;;;5036957;28;20041;-91
2021/06/29 06:16:53;;;;;;;3.30;3.00;;;32.00;59.40;;;;;;5053286;28;20033;-91
2021/06/29 06:19:25;;;;;;;3.10;2.80;;;32.40;58.70;;;;;;5052998;28;20032;-91
2021/06/29 06:22:16;;;;;;;3.30;3.00;;;32.80;58.00;;;;;;5037068;28;20037;-92
2021/06/29 06:25:02;;;;;;;3.60;3.08;;;33.20;56.20;;;;;;5057931;28;20044;-92
2021/06/29 06:27:43;;;;;;;3.45;2.85;;;33.10;56.00;;;;;;5105515;22;20370;-92
2021/06/29 06:30:42;;;;;;;3.45;3.13;;;33.30;55.70;;;;;;5123623;22;20464;-92
2021/06/29 06:33:13;;;;;;;3.20;3.00;;;33.50;55.60;;;;;;5010826;28;20414;-91
2021/06/29 06:35:39;;;;;;;2.85;2.65;;;33.70;54.60;;;;;;4995501;28;20116;-92
2021/06/29 06:38:19;;;;;;;4.65;2.60;;;33.70;54.40;;;;;;4974046;28;20476;-89
2021/06/29 06:41:00;;;;;;;2.63;2.42;;;33.80;54.00;;;;;;4960197;28;20042;-92
2021/06/29 06:43:34;;;;;;;2.80;2.60;;;34.10;53.80;;;;;;4966409;28;20043;-91
2021/06/29 06:46:05;;;;;;;2.95;2.75;;;34.70;53.00;;;;;;4994772;28;20050;-92
2021/06/29 06:48:34;;;;;;;2.83;2.50;;;35.20;52.50;;;;;;5094929;22;20380;-90
2021/06/29 06:51:12;;;;;;;4.30;2.60;;;35.60;51.90;;;;;;5092371;28;20415;-88
2021/06/29 06:53:41;;;;;;;2.92;2.72;;;35.90;51.60;;;;;;5076647;28;20040;-91
2021/06/29 06:56:26;;;;;;;4.13;2.33;;;36.30;51.30;;;;;;5209642;22;20064;-92
2021/06/29 06:59:04;;;;;;;2.60;2.40;;;36.80;50.80;;;;;;5113634;28;20035;-93
2021/06/29 07:07:26;;;;;;;2.45;2.30;;;36.00;47.20;;;;;;4995785;28;20054;-90
2021/06/29 07:09:51;;;;;;;2.75;2.55;;;35.80;49.40;;;;;;4993417;28;20105;-90
2021/06/29 07:12:17;;;;;;;2.88;2.67;;;35.90;49.60;;;;;;4995012;28;20490;-90
2021/06/29 07:14:43;;;;;;;3.83;2.50;;;36.10;48.90;;;;;;4993042;28;20046;-92
2021/06/29 07:17:09;;;;;;;2.95;2.70;;;36.10;48.50;;;;;;4993832;28;20030;-91
2021/06/29 07:19:34;;;;;;;3.65;2.42;;;35.90;47.40;;;;;;4990474;28;20096;-91
2021/06/29 07:22:00;;;;;;;2.55;2.35;;;35.50;47.30;;;;;;4991719;28;20085;-91
2021/06/29 07:24:27;;;;;;;2.75;2.38;;;35.70;47.50;;;;;;4991673;28;20047;-90
2021/06/29 07:26:53;;;;;;;2.03;1.83;;;35.90;48.30;;;;;;5006644;28;20040;-91
2021/06/29 07:29:19;;;;;;;2.42;2.22;;;36.30;46.90;;;;;;4994114;28;20038;-91
2021/06/29 07:31:44;;;;;;;3.60;2.75;;;36.70;46.40;;;;;;4995330;28;20073;-91
2021/06/29 07:34:10;;;;;;;2.72;2.53;;;36.70;45.80;;;;;;4995482;28;20042;-91
2021/06/29 07:36:36;;;;;;;3.72;2.25;;;36.70;45.90;;;;;;4996515;28;20030;-91
2021/06/29 07:39:04;;;;;;;2.30;2.10;;;36.70;45.40;;;;;;4996694;28;20507;-90
2021/06/29 07:41:29;;;;;;;2.53;2.33;;;36.60;45.20;;;;;;4997096;28;20533;-91
2021/06/29 07:44:06;;;;;;;2.28;2.13;;;36.50;44.80;;;;;;4997228;28;20073;-92
2021/06/29 07:46:32;;;;;;;3.25;2.28;;;36.20;44.40;;;;;;5004034;28;20053;-92
2021/06/29 07:49:06;;;;;;;2.42;2.22;;;35.90;44.80;;;;;;4997812;28;20046;-90
2021/06/29 07:51:38;;;;;;;2.50;2.30;;;35.60;45.20;;;;;;4996245;28;20046;-90
2021/06/29 07:54:03;;;;;;;4.30;2.70;;;35.50;46.00;;;;;;4999009;28;20042;-93
2021/06/29 07:56:36;;;;;;;4.60;2.97;;;35.30;46.20;;;;;;4996774;28;20038;-91
2021/06/29 07:59:03;;;;;;;2.92;2.70;;;35.40;46.60;;;;;;4996148;28;20034;-90
2021/06/29 08:01:28;;;;;;;3.17;2.90;;;35.50;46.70;;;;;;4996439;28;20550;-91
2021/06/29 08:03:55;;;;;;;2.80;2.60;;;36.10;47.10;;;;;;4997766;28;20042;-90
2021/06/29 08:06:21;;;;;;;3.38;2.72;;;36.50;46.30;;;;;;4996337;28;20077;-89
2021/06/29 08:08:46;;;;;;;3.67;2.60;;;36.50;45.70;;;;;;4995523;28;20042;-89
2021/06/29 08:11:12;;;;;;;5.35;2.95;;;36.50;45.70;;;;;;4996082;28;20075;-89
2021/06/29 08:13:39;;;;;;;2.85;2.65;;;36.80;46.10;;;;;;4995436;28;20447;-90
2021/06/29 08:16:06;;;;;;;3.20;2.65;;;37.40;46.30;;;;;;4996008;28;20046;-89
2021/06/29 08:18:31;;;;;;;2.60;2.40;;;38.10;45.60;;;;;;4995099;28;20092;-90
2021/06/29 08:20:58;;;;;;;2.88;2.60;;;39.10;44.90;;;;;;4994320;28;20034;-90
2021/06/29 08:23:28;;;;;;;2.88;2.20;;;39.60;43.70;;;;;;4997764;28;20030;-91
2021/06/29 08:25:54;;;;;;;1.90;1.80;;;40.00;43.30;;;;;;4994318;28;20476;-89
2021/06/29 08:28:20;;;;;;;1.70;1.60;;;40.60;42.50;;;;;;4996520;28;20054;-91
2021/06/29 08:30:50;;;;;;;2.75;1.55;;;40.90;41.50;;;;;;4997362;28;20607;-91
2021/06/29 08:33:20;;;;;;;7.25;1.67;;;40.90;40.80;;;;;;5003661;28;20053;-90
2021/06/29 08:35:47;;;;;;;2.58;1.90;;;40.30;40.30;;;;;;4998872;28;20034;-89
2021/06/29 08:38:16;;;;;;;2.08;1.88;;;39.50;40.50;;;;;;4994928;28;20057;-92
2021/06/29 08:40:42;;;;;;;1.85;1.75;;;39.00;41.10;;;;;;4995071;28;20042;-91
2021/06/29 08:43:10;;;;;;;2.10;1.90;;;38.70;41.30;;;;;;4993107;28;20030;-89
2021/06/29 08:45:36;;;;;;;2.45;1.80;;;38.70;41.70;;;;;;4992953;28;20039;-89
2021/06/29 08:48:03;;;;;;;1.85;1.75;;;38.60;42.00;;;;;;4994636;28;20046;-89
2021/06/29 08:50:31;;;;;;;2.03;1.92;;;38.60;42.20;;;;;;4995225;28;20101;-91
2021/06/29 08:53:01;;;;;;;2.50;2.10;;;38.70;42.10;;;;;;4995620;28;20045;-92
2021/06/29 08:55:31;;;;;;;3.78;2.03;;;38.50;42.30;;;;;;4996269;28;20069;-90
2021/06/29 08:57:57;;;;;;;2.38;2.17;;;38.30;42.60;;;;;;4994044;28;20043;-90
2021/06/29 09:00:23;;;;;;;2.33;2.13;;;37.90;42.70;;;;;;4993425;28;20408;-90
2021/06/29 09:02:49;;;;;;;2.00;1.90;;;37.90;43.70;;;;;;4993597;28;20042;-90
2021/06/29 09:05:21;;;;;;;3.20;1.77;;;38.50;43.90;;;;;;4994583;28;20034;-92
2021/06/29 09:07:48;;;;;;;2.03;1.67;;;39.20;43.40;;;;;;4994667;28;20085;-91
2021/06/29 09:10:15;;;;;;;1.52;1.42;;;39.80;42.10;;;;;;4994247;28;20047;-91
2021/06/29 09:12:51;;;;;;;4.45;1.60;;;40.30;41.00;;;;;;4994679;28;20041;-92
2021/06/29 09:15:21;;;;;;;1.75;1.63;;;40.50;38.80;;;;;;4994488;28;20133;-89
2021/06/29 09:17:47;;;;;;;3.15;1.65;;;40.70;40.00;;;;;;4995249;28;20038;-90
2021/06/29 09:20:13;;;;;;;3.88;1.90;;;40.90;40.20;;;;;;4995632;28;20038;-91
2021/06/29 09:22:39;;;;;;;1.85;1.63;;;41.30;40.30;;;;;;5010951;28;20031;-90
2021/06/29 09:25:24;;;;;;;1.48;1.38;;;41.70;40.00;;;;;;5015234;28;20042;-93
2021/06/29 09:27:57;;;;;;;4.55;1.75;;;42.10;39.00;;;;;;5001000;28;20041;-90
2021/06/29 09:30:42;;;;;;;2.03;1.60;;;42.00;39.20;;;;;;4996306;28;20089;-89
2021/06/29 09:33:16;;;;;;;1.50;1.33;;;42.20;39.00;;;;;;4994179;28;20045;-90
2021/06/29 09:35:46;;;;;;;1.92;1.80;;;42.50;39.20;;;;;;4995399;28;20041;-90
2021/06/29 09:38:20;;;;;;;1.50;1.40;;;42.80;39.00;;;;;;4994896;28;20092;-91
2021/06/29 09:40:58;;;;;;;2.13;1.42;;;43.10;38.30;;;;;;4994204;28;20281;-92
2021/06/29 09:43:25;;;;;;;1.75;1.50;;;43.40;37.70;;;;;;4995892;28;20046;-91
2021/06/29 09:46:03;;;;;;;2.60;1.45;;;43.40;37.60;;;;;;4995097;28;20081;-91
2021/06/29 09:48:46;;;;;;;1.55;1.45;;;43.30;36.90;;;;;;4992611;28;20085;-91
2021/06/29 09:51:25;;;;;;;2.58;1.40;;;43.10;36.50;;;;;;4992478;28;20459;-92
2021/06/29 09:53:52;;;;;;;2.40;1.48;;;42.90;37.00;;;;;;4995670;28;20480;-91
2021/06/29 09:56:24;;;;;;;1.25;1.20;;;42.60;36.60;;;;;;4995149;28;20034;-90
2021/06/29 09:58:54;;;;;;;2.85;1.38;;;41.90;36.50;;;;;;4993766;28;20041;-92
2021/06/29 10:01:25;;;;;;;1.48;1.38;;;41.70;37.10;;;;;;4995052;28;20062;-91
2021/06/29 10:03:58;;;;;;;1.42;1.30;;;41.70;37.10;;;;;;4996705;28;20046;-93
2021/06/29 10:06:26;;;;;;;1.48;1.40;;;41.40;37.10;;;;;;4997156;28;20047;-92
2021/06/29 10:08:53;;;;;;;2.85;1.40;;;40.60;37.00;;;;;;4996585;28;20499;-93
2021/06/29 10:11:34;;;;;;;2.97;1.40;;;39.80;37.30;;;;;;4994578;28;20381;-91
2021/06/29 10:14:03;;;;;;;1.60;1.50;;;39.80;37.90;;;;;;4997297;28;20388;-92
2021/06/29 10:16:39;;;;;;;3.42;1.40;;;40.30;37.50;;;;;;4999022;28;20104;-94
2021/06/29 10:21:48;;;;;;;3.00;1.60;;;41.50;37.00;;;;;;5000116;28;20106;-93
2021/06/29 10:24:20;;;;;;;3.47;1.55;;;42.20;36.50;;;;;;5080454;22;20052;-91
2021/06/29 10:26:46;;;;;;;2.00;1.73;;;42.60;36.40;;;;;;5080060;28;20076;-90
2021/06/29 10:29:14;;;;;;;1.63;1.52;;;42.70;35.90;;;;;;5079410;28;20044;-91
2021/06/29 10:31:42;;;;;;;2.80;1.58;;;42.80;36.20;;;;;;5078342;28;20028;-91
2021/06/29 10:34:09;;;;;;;1.50;1.40;;;43.40;36.30;;;;;;5077991;28;20028;-91
2021/06/29 10:36:39;;;;;;;1.50;1.40;;;43.70;36.40;;;;;;5078307;28;20028;-92
2021/06/29 10:39:07;;;;;;;1.58;1.30;;;43.60;36.10;;;;;;5077275;28;20043;-93
2021/06/29 10:41:43;;;;;;;1.65;1.55;;;43.00;36.30;;;;;;5079138;28;20024;-92
2021/06/29 10:44:12;;;;;;;1.60;1.50;;;41.90;36.40;;;;;;5080502;28;20032;-90
2021/06/29 10:46:45;;;;;;;1.70;1.60;;;40.40;37.10;;;;;;5082597;28;20089;-90
2021/06/29 10:49:30;;;;;;;1.70;1.60;;;39.10;38.00;;;;;;5084450;28;20130;-91
2021/06/29 10:51:58;;;;;;;2.42;1.90;;;37.40;39.00;;;;;;5076128;28;20058;-91
2021/06/29 10:54:40;;;;;;;4.30;2.33;;;36.10;40.60;;;;;;5076677;28;20039;-89
2021/06/29 10:57:07;;;;;;;4.60;2.22;;;34.80;43.10;;;;;;5076875;28;20119;-88
2021/06/29 10:59:35;;;;;;;3.55;2.17;;;33.50;45.50;;;;;;5077527;28;20325;-91
2021/06/29 11:02:01;;;;;;;2.65;2.10;;;32.20;48.20;;;;;;5077118;28;20123;-92
2021/06/29 11:05:02;;;;;;;3.30;2.00;;;31.20;50.20;;;;;;5080402;28;20442;-89
2021/06/29 11:07:31;;;;;;;4.38;1.75;;;29.80;49.70;;;;;;5077103;28;20036;-91
2021/06/29 11:10:00;;;;;;;9.88;1.90;;;28.40;51.70;;;;;;5076518;28;20044;-89
2021/06/29 11:12:28;;;;;;;6.95;1.77;;;27.10;60.00;;;;;;5075956;28;20036;-90
2021/06/29 11:14:57;;;;;;;2.72;1.70;;;25.60;68.40;;;;;;5074761;28;20413;-90
2021/06/29 11:17:43;;;;;;;3.25;1.70;;;24.60;75.30;;;;;;5075340;28;20036;-90
2021/06/29 11:20:12;;;;;;;2.33;2.13;;;23.90;78.80;;;;;;5076447;28;20032;-90
2021/06/29 11:23:04;;;;;;;2.30;2.10;;;23.20;84.80;;;;;;5076597;28;20117;-89
2021/06/29 11:25:36;;;;;;;3.22;2.25;;;22.90;90.90;;;;;;5077855;28;20043;-91
2021/06/29 11:28:04;;;;;;;5.03;2.15;;;22.80;94.10;;;;;;5078484;28;20036;-93
2021/06/29 11:31:01;;;;;;;2.45;2.22;;;22.90;95.90;;;;;;5078228;28;20040;-90
2021/06/29 11:33:42;;;;;;;3.05;2.33;;;23.10;96.50;;;;;;5057944;28;20036;-90
2021/06/29 11:36:23;;;;;;;3.70;2.30;;;23.40;97.90;;;;;;5075765;28;20036;-90
2021/06/29 11:39:22;;;;;;;2.33;2.13;;;23.70;98.70;;;;;;5075396;28;20039;-90
2021/06/29 11:41:51;;;;;;;2.70;2.50;;;24.00;98.60;;;;;;5074280;28;20044;-90
2021/06/29 11:44:17;;;;;;;2.80;2.60;;;24.30;97.90;;;;;;5074676;28;20044;-89
2021/06/29 11:46:49;;;;;;;2.70;2.50;;;24.60;98.50;;;;;;5075392;28;20116;-90
2021/06/29 11:49:36;;;;;;;3.17;2.63;;;24.70;97.50;;;;;;5076125;28;20051;-91
2021/06/29 11:52:06;;;;;;;2.53;2.33;;;24.70;97.60;;;;;;5092646;28;20047;-91
2021/06/29 11:54:44;;;;;;;2.50;2.30;;;24.80;97.00;;;;;;5075196;28;20109;-90
2021/06/29 11:57:35;;;;;;;2.50;2.30;;;24.90;96.10;;;;;;5075238;28;20029;-89
2021/06/29 12:00:23;;;;;;;2.58;2.28;;;24.90;93.40;;;;;;5084576;28;20028;-90
2021/06/29 12:03:03;;;;;;;2.60;2.40;;;25.00;96.70;;;;;;5084277;28;20044;-89
2021/06/29 12:05:32;;;;;;;2.22;2.00;;;24.90;97.60;;;;;;5081657;28;20094;-91
2021/06/29 12:08:02;;;;;;;3.22;2.42;;;24.90;97.70;;;;;;5078764;28;20064;-91
2021/06/29 12:10:37;;;;;;;2.35;2.15;;;24.90;97.70;;;;;;5075456;28;20453;-91
2021/06/29 12:13:25;;;;;;;2.75;2.40;;;25.00;97.20;;;;;;5078716;28;20036;-91
2021/06/29 12:15:53;;;;;;;2.75;2.55;;;24.90;98.10;;;;;;5079742;28;20115;-91
2021/06/29 12:18:22;;;;;;;3.03;2.38;;;24.90;98.10;;;;;;5099073;28;20047;-91
2021/06/29 12:20:51;;;;;;;3.03;2.70;;;25.00;98.10;;;;;;5082113;28;20032;-91
2021/06/29 12:23:20;;;;;;;3.10;2.88;;;25.10;98.30;;;;;;5081706;28;20097;-91
2021/06/29 12:25:53;;;;;;;3.25;2.95;;;25.10;98.00;;;;;;5081700;28;20039;-91
2021/06/29 12:28:27;;;;;;;4.30;3.45;;;25.10;97.90;;;;;;5079100;28;20408;-91
2021/06/29 12:30:56;;;;;;;5.28;3.38;;;25.20;99.10;;;;;;5098325;28;20056;-91
2021/06/29 12:33:25;;;;;;;4.97;3.30;;;25.40;99.90;;;;;;5081496;28;20044;-91
2021/06/29 12:35:59;;;;;;;3.55;3.25;;;25.70;99.90;;;;;;5079510;28;20032;-90
2021/06/29 12:38:28;;;;;;;4.30;3.88;;;26.10;99.90;;;;;;5096764;28;20032;-90
2021/06/29 12:41:06;;;;;;;4.32;3.92;;;26.50;99.90;;;;;;5090408;28;20108;-90
2021/06/29 12:43:44;;;;;;;4.75;4.28;;;27.00;96.60;;;;;;5096061;28;20075;-90
2021/06/29 12:46:14;;;;;;;5.40;3.83;;;27.50;98.60;;;;;;5092202;28;20028;-92
2021/06/29 12:48:41;;;;;;;3.50;3.20;;;28.10;97.20;;;;;;5078312;28;20044;-90
2021/06/29 12:51:07;;;;;;;3.50;3.20;;;28.70;97.60;;;;;;5078405;28;20056;-92
2021/06/29 12:53:34;;;;;;;4.88;3.20;;;29.40;96.70;;;;;;5078446;28;20123;-90
2021/06/29 12:56:09;;;;;;;4.05;3.00;;;30.00;94.90;;;;;;5078203;28;20389;-91
2021/06/29 12:58:35;;;;;;;3.05;2.75;;;30.60;89.60;;;;;;5077960;28;20061;-91
2021/06/29 13:01:01;;;;;;;3.03;2.83;;;30.90;87.20;;;;;;5079303;28;20032;-91
2021/06/29 13:03:31;;;;;;;4.05;3.20;;;31.00;84.80;;;;;;5078731;28;20079;-91
2021/06/29 13:06:16;;;;;;;4.30;2.80;;;30.90;81.00;;;;;;5081682;28;20431;-91
2021/06/29 13:08:45;;;;;;;4.25;2.65;;;30.90;72.60;;;;;;5082048;28;20048;-90
2021/06/29 13:11:16;;;;;;;2.67;2.47;;;31.10;80.30;;;;;;5082508;28;20032;-89
2021/06/29 13:13:58;;;;;;;2.38;2.22;;;31.40;78.70;;;;;;5098122;28;20060;-90
2021/06/29 13:16:24;;;;;;;2.42;2.22;;;31.90;72.40;;;;;;5078470;28;20118;-90
2021/06/29 13:18:50;;;;;;;2.75;2.30;;;32.20;77.80;;;;;;5078633;28;20123;-91
2021/06/29 13:21:25;;;;;;;2.40;2.17;;;32.70;75.40;;;;;;5078167;28;20138;-90
2021/06/29 13:24:04;;;;;;;2.75;2.55;;;33.10;70.60;;;;;;5077839;28;20396;-91
2021/06/29 13:26:31;;;;;;;2.72;2.40;;;33.10;66.70;;;;;;5076943;28;20036;-90
2021/06/29 13:28:59;;;;;;;2.30;2.10;;;32.80;68.90;;;;;;5078468;28;20051;-91
2021/06/29 13:31:39;;;;;;;2.58;2.38;;;32.50;67.70;;;;;;5078439;28;20024;-91
2021/06/29 13:34:20;;;;;;;4.55;2.10;;;32.30;63.60;;;;;;5079175;28;20043;-91
2021/06/29 13:36:46;;;;;;;2.58;1.90;;;32.20;66.40;;;;;;5078714;28;20032;-91
2021/06/29 13:39:29;;;;;;;2.00;1.88;;;32.30;68.80;;;;;;5078410;28;20036;-91
2021/06/29 13:41:59;;;;;;;1.98;1.88;;;32.80;64.30;;;;;;5077525;28;20089;-90